Time;durP1;ratioP1;P1;durP2;ratioP2;P2;SDS_P1;SDS_P2;PMS_P1;PMS_P2;Temp;Humidity;BMP_temperature;BMP_pressure;BME280_temperature;BME280_humidity;BME280_pressure;Samples;Min_cycle;Max_cycle;Signal;HPM_P1;HPM_P2
2022/05/10 00:01:31;;;;;;;;;;;13.10;99.90;;;;;;5154731;27;19923;-60
2022/05/10 00:03:57;;;;;;;;;;;13.10;99.90;;;;;;5154570;27;19923;-61
2022/05/10 00:06:23;;;;;;;;;;;13.00;99.90;;;;;;5152551;27;19996;-61
2022/05/10 00:08:49;;;;;;;;;;;13.00;99.90;;;;;;5152864;27;19927;-61
2022/05/10 00:11:15;;;;;;;;;;;13.10;99.90;;;;;;5157046;27;20022;-61
2022/05/10 00:13:41;;;;;;;;;;;13.00;99.90;;;;;;5157093;27;19923;-61
2022/05/10 00:16:11;;;;;;;;;;;13.00;99.90;;;;;;5149808;27;19923;-61
2022/05/10 00:18:36;;;;;;;;;;;13.00;99.90;;;;;;5132859;27;20281;-61
2022/05/10 00:21:02;;;;;;;;;;;13.00;99.90;;;;;;5138385;27;19931;-61
2022/05/10 00:23:28;;;;;;;;;;;12.90;99.90;;;;;;5158374;27;19955;-61
2022/05/10 00:25:53;;;;;;;;;;;13.00;99.90;;;;;;5157709;27;19930;-61
2022/05/10 00:28:19;;;;;;;;;;;13.00;99.90;;;;;;5157127;27;19923;-60
2022/05/10 00:30:45;;;;;;;;;;;13.10;99.90;;;;;;5158020;27;19923;-61
2022/05/10 00:33:14;;;;;;;;;;;13.10;99.90;;;;;;5154907;27;20373;-61
2022/05/10 00:35:39;;;;;;;;;;;13.10;99.90;;;;;;5135822;27;19927;-61
2022/05/10 00:38:05;;;;;;;;;;;13.20;99.90;;;;;;5158103;27;19923;-60
2022/05/10 00:40:32;;;;;;;;;;;13.40;99.90;;;;;;5139072;27;19923;-61
2022/05/10 00:43:02;;;;;;;;;;;13.40;99.90;;;;;;5156504;27;20271;-60
2022/05/10 00:45:38;;;;;;;;;;;13.50;99.90;;;;;;5157575;27;19919;-61
2022/05/10 00:48:08;;;;;;;;;;;13.50;99.90;;;;;;5138506;27;20032;-61
2022/05/10 00:50:38;;;;;;;;;;;13.40;99.90;;;;;;5156858;27;19930;-61
2022/05/10 00:53:06;;;;;;;;;;;13.40;99.90;;;;;;5136865;27;19928;-61
2022/05/10 00:55:42;;;;;;;;;;;13.40;99.90;;;;;;5117920;27;19928;-61
2022/05/10 00:58:13;;;;;;;;;;;13.40;99.90;;;;;;5118316;27;19931;-60
2022/05/10 01:00:39;;;;;;;;;;;13.40;99.90;;;;;;5128308;27;20336;-60
2022/05/10 01:03:17;;;;;;;;;;;13.40;99.90;;;;;;5156634;27;20010;-61
2022/05/10 01:05:47;;;;;;;;;;;13.30;99.90;;;;;;5156878;27;19974;-61
2022/05/10 01:08:21;;;;;;;;;;;13.40;99.90;;;;;;5157307;27;20433;-61
2022/05/10 01:10:46;;;;;;;;;;;13.40;99.90;;;;;;5135819;27;19931;-61
2022/05/10 01:13:16;;;;;;;;;;;13.30;99.90;;;;;;5136110;27;19928;-61
2022/05/10 01:15:47;;;;;;;;;;;13.40;99.90;;;;;;5118007;27;20365;-60
2022/05/10 01:18:14;;;;;;;;;;;13.30;99.90;;;;;;5127615;27;20334;-60
2022/05/10 01:20:41;;;;;;;;;;;13.30;99.90;;;;;;5156394;27;19923;-60
2022/05/10 01:23:19;;;;;;;;;;;13.20;99.90;;;;;;5137657;27;20693;-60
2022/05/10 01:25:51;;;;;;;;;;;13.20;99.90;;;;;;5156978;27;19931;-60
2022/05/10 01:28:21;;;;;;;;;;;13.10;99.90;;;;;;5156346;27;19923;-60
2022/05/10 01:30:47;;;;;;;;;;;13.00;99.90;;;;;;5156037;27;19926;-60
2022/05/10 01:33:30;;;;;;;;;;;12.90;99.90;;;;;;5156871;27;19923;-61
2022/05/10 01:36:01;;;;;;;;;;;12.90;99.90;;;;;;5136312;27;20010;-60
2022/05/10 01:38:34;;;;;;;;;;;12.90;99.90;;;;;;5116780;27;19923;-60
2022/05/10 01:41:13;;;;;;;;;;;12.80;99.90;;;;;;5135410;27;19923;-60
2022/05/10 01:43:43;;;;;;;;;;;12.80;99.90;;;;;;5149311;27;19923;-61
2022/05/10 01:46:25;;;;;;;;;;;12.80;99.90;;;;;;5152975;27;19923;-61
2022/05/10 01:48:52;;;;;;;;;;;12.80;99.90;;;;;;5156317;27;19927;-60
2022/05/10 01:51:22;;;;;;;;;;;12.80;99.90;;;;;;5155709;27;19923;-60
2022/05/10 01:53:47;;;;;;;;;;;12.80;99.90;;;;;;5155777;27;19923;-60
2022/05/10 01:56:16;;;;;;;;;;;12.80;99.90;;;;;;5137264;27;19947;-60
2022/05/10 01:58:43;;;;;;;;;;;12.90;99.90;;;;;;5155682;27;19923;-61
2022/05/10 02:01:11;;;;;;;;;;;12.90;99.90;;;;;;5137904;27;19923;-60
2022/05/10 02:03:43;;;;;;;;;;;12.90;99.90;;;;;;5155634;27;19926;-61
2022/05/10 02:06:19;;;;;;;;;;;12.90;99.90;;;;;;5136717;27;20443;-61
2022/05/10 02:08:50;;;;;;;;;;;12.90;99.90;;;;;;5155958;27;19923;-60
2022/05/10 02:11:16;;;;;;;;;;;12.90;99.90;;;;;;5155441;27;20499;-60
2022/05/10 02:13:49;;;;;;;;;;;12.90;99.90;;;;;;5154950;27;20353;-60
2022/05/10 02:16:17;;;;;;;;;;;12.80;99.90;;;;;;5156123;27;19923;-60
2022/05/10 02:19:01;;;;;;;;;;;12.90;99.90;;;;;;5136698;27;19923;-60
2022/05/10 02:21:29;;;;;;;;;;;12.90;99.90;;;;;;5155389;27;19923;-60
2022/05/10 02:24:03;;;;;;;;;;;12.90;99.90;;;;;;5156069;27;19923;-60
2022/05/10 02:26:32;;;;;;;;;;;12.90;99.90;;;;;;5154853;27;20306;-60
2022/05/10 02:29:04;;;;;;;;;;;12.90;99.90;;;;;;5155482;27;19923;-60
2022/05/10 02:33:06;;;;;;;;;;;12.90;99.90;;;;;;5155798;27;20001;-60
2022/05/10 02:34:22;;;;;;;;;;;12.90;99.90;;;;;;5146699;27;20385;-61
2022/05/10 02:36:47;;;;;;;;;;;12.90;99.90;;;;;;5134925;27;20031;-60
2022/05/10 02:39:13;;;;;;;;;;;12.90;99.90;;;;;;5134638;27;19929;-60
2022/05/10 02:41:39;;;;;;;;;;;12.90;99.90;;;;;;5133531;27;20274;-60
2022/05/10 02:44:04;;;;;;;;;;;12.90;99.90;;;;;;5151452;27;19919;-60
2022/05/10 02:46:30;;;;;;;;;;;12.90;99.90;;;;;;5136620;27;19923;-60
2022/05/10 02:48:56;;;;;;;;;;;12.90;99.90;;;;;;5154227;27;19919;-60
2022/05/10 02:51:21;;;;;;;;;;;12.90;99.90;;;;;;5155487;27;19977;-61
2022/05/10 02:53:47;;;;;;;;;;;13.00;99.90;;;;;;5155216;27;20026;-60
2022/05/10 02:56:14;;;;;;;;;;;13.00;99.90;;;;;;5138587;27;19927;-60
2022/05/10 02:58:51;;;;;;;;;;;13.00;99.90;;;;;;5134526;27;19927;-60
2022/05/10 03:01:36;;;;;;;;;;;13.00;99.90;;;;;;5133645;27;19924;-60
2022/05/10 03:04:02;;;;;;;;;;;13.00;99.90;;;;;;5122022;27;19973;-60
2022/05/10 03:06:28;;;;;;;;;;;12.90;99.90;;;;;;5154947;27;19923;-60
2022/05/10 03:08:55;;;;;;;;;;;12.90;99.90;;;;;;5154242;27;20005;-60
2022/05/10 03:11:20;;;;;;;;;;;12.90;99.90;;;;;;5136416;27;19990;-60
2022/05/10 03:13:47;;;;;;;;;;;12.80;99.90;;;;;;5154357;27;20409;-61
2022/05/10 03:16:13;;;;;;;;;;;12.80;99.90;;;;;;5135504;27;20397;-60
2022/05/10 03:18:39;;;;;;;;;;;12.80;99.90;;;;;;5154647;27;19919;-60
2022/05/10 03:21:05;;;;;;;;;;;12.80;99.90;;;;;;5135555;27;20460;-60
2022/05/10 03:23:30;;;;;;;;;;;12.60;99.90;;;;;;5135572;27;19923;-60
2022/05/10 03:25:56;;;;;;;;;;;12.70;99.90;;;;;;5154339;27;20017;-60
2022/05/10 03:28:23;;;;;;;;;;;12.60;99.90;;;;;;5154981;27;19930;-60
2022/05/10 03:30:49;;;;;;;;;;;12.60;99.90;;;;;;5153813;27;19926;-60
2022/05/10 03:33:14;;;;;;;;;;;12.60;99.90;;;;;;5154327;27;19923;-60
2022/05/10 03:35:40;;;;;;;;;;;12.60;99.90;;;;;;5136424;27;19923;-60
2022/05/10 03:38:06;;;;;;;;;;;12.60;99.90;;;;;;5114824;28;19924;-60
2022/05/10 03:40:32;;;;;;;;;;;12.50;99.90;;;;;;5149400;27;19924;-60
2022/05/10 03:42:58;;;;;;;;;;;12.60;99.90;;;;;;5154699;27;19923;-60
2022/05/10 03:45:23;;;;;;;;;;;12.80;99.90;;;;;;5156598;27;19946;-60
2022/05/10 03:47:50;;;;;;;;;;;13.00;99.90;;;;;;5158395;27;19927;-60
2022/05/10 03:50:17;;;;;;;;;;;13.00;99.90;;;;;;5159037;27;19968;-60
2022/05/10 03:52:43;;;;;;;;;;;13.00;99.90;;;;;;5157925;27;20278;-60
2022/05/10 03:55:10;;;;;;;;;;;13.10;99.90;;;;;;5158655;27;19968;-60
2022/05/10 03:57:36;;;;;;;;;;;13.10;99.90;;;;;;5157653;27;19925;-60
2022/05/10 04:00:03;;;;;;;;;;;13.20;99.90;;;;;;5140250;27;19998;-60
2022/05/10 04:02:39;;;;;;;;;;;13.10;99.90;;;;;;5158010;27;19974;-60
2022/05/10 04:05:06;;;;;;;;;;;13.20;99.90;;;;;;5157949;27;20357;-60
2022/05/10 04:07:31;;;;;;;;;;;13.30;99.90;;;;;;5158047;27;19923;-60
2022/05/10 04:09:57;;;;;;;;;;;13.40;99.90;;;;;;5158355;27;19931;-60
2022/05/10 04:12:23;;;;;;;;;;;13.40;99.90;;;;;;5157568;27;19971;-60
2022/05/10 04:14:48;;;;;;;;;;;13.50;99.90;;;;;;5151513;27;19923;-60
2022/05/10 04:17:14;;;;;;;;;;;13.50;99.90;;;;;;5139161;27;19923;-60
2022/05/10 04:19:39;;;;;;;;;;;13.50;99.90;;;;;;5157155;27;19923;-60
2022/05/10 04:22:05;;;;;;;;;;;13.60;99.90;;;;;;5139762;27;19976;-60
2022/05/10 04:24:31;;;;;;;;;;;13.60;99.90;;;;;;5157562;27;20277;-60
2022/05/10 04:26:57;;;;;;;;;;;13.70;99.90;;;;;;5157397;27;19930;-60
2022/05/10 04:29:22;;;;;;;;;;;13.70;99.90;;;;;;5157951;27;19934;-60
2022/05/10 04:31:48;;;;;;;;;;;13.70;99.90;;;;;;5157089;27;19930;-60
2022/05/10 04:34:14;;;;;;;;;;;13.70;99.90;;;;;;5123580;27;19931;-60
2022/05/10 04:36:40;;;;;;;;;;;13.70;99.90;;;;;;5157903;27;19923;-60
2022/05/10 04:39:06;;;;;;;;;;;13.90;99.90;;;;;;5157413;27;19923;-60
2022/05/10 04:41:33;;;;;;;;;;;14.00;99.90;;;;;;5155114;27;20262;-60
2022/05/10 04:44:00;;;;;;;;;;;14.10;99.90;;;;;;5154636;27;19924;-60
2022/05/10 04:46:27;;;;;;;;;;;14.10;99.90;;;;;;5157103;27;19923;-60
2022/05/10 04:48:52;;;;;;;;;;;14.20;99.90;;;;;;5156942;27;19931;-60
2022/05/10 04:51:18;;;;;;;;;;;14.20;99.90;;;;;;5157506;27;19923;-60
2022/05/10 04:53:44;;;;;;;;;;;14.10;99.90;;;;;;5138470;27;19947;-60
2022/05/10 04:56:10;;;;;;;;;;;14.10;99.90;;;;;;5116793;27;19955;-60
2022/05/10 04:58:36;;;;;;;;;;;14.00;99.90;;;;;;5136149;27;20014;-60
2022/05/10 05:01:03;;;;;;;;;;;14.10;99.90;;;;;;5135288;27;19923;-60
2022/05/10 05:03:29;;;;;;;;;;;14.00;99.90;;;;;;5136776;27;19927;-60
2022/05/10 05:05:55;;;;;;;;;;;14.10;99.90;;;;;;5136602;27;19926;-60
2022/05/10 05:08:20;;;;;;;;;;;14.10;99.90;;;;;;5116586;27;19959;-60
2022/05/10 05:10:46;;;;;;;;;;;14.20;99.90;;;;;;5136538;27;19923;-60
2022/05/10 05:13:13;;;;;;;;;;;14.20;99.90;;;;;;5117493;27;19924;-60
2022/05/10 05:15:39;;;;;;;;;;;14.30;99.90;;;;;;5116676;27;19967;-60
2022/05/10 05:18:07;;;;;;;;;;;14.30;99.90;;;;;;5135991;27;19961;-60
2022/05/10 05:20:34;;;;;;;;;;;14.30;99.90;;;;;;5136086;27;20293;-60
2022/05/10 05:23:01;;;;;;;;;;;14.40;99.90;;;;;;5135196;27;19923;-60
2022/05/10 05:25:27;;;;;;;;;;;14.40;99.90;;;;;;5135658;27;19970;-60
2022/05/10 05:27:52;;;;;;;;;;;14.50;99.90;;;;;;5117684;27;19931;-61
2022/05/10 05:30:18;;;;;;;;;;;14.50;99.90;;;;;;5134676;27;19930;-60
2022/05/10 05:32:44;;;;;;;;;;;14.60;99.90;;;;;;5117216;27;20075;-60
2022/05/10 05:35:11;;;;;;;;;;;14.60;99.90;;;;;;5116121;27;20377;-60
2022/05/10 05:37:37;;;;;;;;;;;14.60;99.90;;;;;;5134926;27;19996;-60
2022/05/10 05:40:05;;;;;;;;;;;14.70;99.90;;;;;;5135584;27;19928;-60
2022/05/10 05:42:31;;;;;;;;;;;14.70;99.90;;;;;;5134981;27;20480;-60
2022/05/10 05:44:56;;;;;;;;;;;14.80;99.90;;;;;;5132440;27;19923;-60
2022/05/10 05:47:22;;;;;;;;;;;14.80;99.90;;;;;;5156440;27;20589;-60
2022/05/10 05:49:48;;;;;;;;;;;14.90;99.90;;;;;;5137864;27;19926;-60
2022/05/10 05:52:17;;;;;;;;;;;15.00;99.90;;;;;;5147863;27;19978;-60
2022/05/10 05:54:44;;;;;;;;;;;15.10;99.90;;;;;;5135309;27;19927;-60
2022/05/10 05:57:10;;;;;;;;;;;15.20;99.90;;;;;;5134784;27;19924;-60
2022/05/10 05:59:35;;;;;;;;;;;15.20;99.90;;;;;;5135027;27;20373;-60
2022/05/10 06:02:01;;;;;;;;;;;15.30;99.90;;;;;;5116085;27;20334;-60
2022/05/10 06:04:27;;;;;;;;;;;15.40;99.90;;;;;;5134785;27;19923;-61
2022/05/10 06:06:52;;;;;;;;;;;15.50;99.90;;;;;;5133333;27;19975;-61
2022/05/10 06:09:24;;;;;;;;;;;15.60;99.90;;;;;;5134412;27;20072;-60
2022/05/10 06:11:49;;;;;;;;;;;15.60;99.90;;;;;;5134492;27;19927;-60
2022/05/10 06:14:15;;;;;;;;;;;15.70;99.90;;;;;;5116460;27;20042;-61
2022/05/10 06:16:41;;;;;;;;;;;15.70;99.90;;;;;;5116134;27;19930;-61
2022/05/10 06:19:08;;;;;;;;;;;15.80;99.90;;;;;;5154371;27;19931;-60
2022/05/10 06:21:33;;;;;;;;;;;15.80;99.90;;;;;;5155914;27;19923;-60
2022/05/10 06:23:59;;;;;;;;;;;15.80;99.90;;;;;;5155477;27;19930;-60
2022/05/10 06:26:24;;;;;;;;;;;15.80;99.90;;;;;;5155022;27;19919;-60
2022/05/10 06:28:50;;;;;;;;;;;15.80;99.90;;;;;;5149036;27;20365;-60
2022/05/10 06:31:16;;;;;;;;;;;15.90;99.90;;;;;;5137077;27;20392;-60
2022/05/10 06:33:41;;;;;;;;;;;16.00;99.90;;;;;;5134718;27;19976;-60
2022/05/10 06:36:07;;;;;;;;;;;16.00;99.90;;;;;;5151840;27;20273;-60
2022/05/10 06:38:34;;;;;;;;;;;16.10;99.90;;;;;;5153554;27;20365;-61
2022/05/10 06:41:01;;;;;;;;;;;16.20;99.90;;;;;;5132444;27;19919;-61
2022/05/10 06:43:28;;;;;;;;;;;16.40;99.90;;;;;;5136335;27;19927;-60
2022/05/10 06:46:01;;;;;;;;;;;16.50;99.90;;;;;;5139000;27;19967;-60
2022/05/10 06:48:26;;;;;;;;;;;16.70;99.90;;;;;;5142980;27;19930;-60
2022/05/10 06:50:52;;;;;;;;;;;16.90;99.90;;;;;;5154631;27;19927;-60
2022/05/10 06:53:18;;;;;;;;;;;17.10;99.90;;;;;;5153682;27;20039;-60
2022/05/10 06:55:43;;;;;;;;;;;17.40;99.90;;;;;;5131777;27;19923;-61
2022/05/10 06:58:09;;;;;;;;;;;17.70;99.90;;;;;;5136235;27;19930;-61
2022/05/10 07:00:38;;;;;;;;;;;18.00;99.90;;;;;;5153758;27;19923;-60
2022/05/10 07:03:05;;;;;;;;;;;18.30;99.90;;;;;;5154542;27;20365;-61
2022/05/10 07:05:31;;;;;;;;;;;18.50;99.90;;;;;;5135772;27;19930;-61
2022/05/10 07:07:56;;;;;;;;;;;18.70;99.90;;;;;;5152493;27;20288;-60
2022/05/10 07:10:22;;;;;;;;;;;18.90;99.90;;;;;;5136276;27;19927;-61
2022/05/10 07:12:48;;;;;;;;;;;19.00;99.90;;;;;;5135533;27;19967;-61
2022/05/10 07:15:15;;;;;;;;;;;19.10;99.90;;;;;;5153530;27;20356;-60
2022/05/10 07:17:45;;;;;;;;;;;19.20;99.90;;;;;;5151512;27;20026;-61
2022/05/10 07:20:12;;;;;;;;;;;19.20;99.90;;;;;;5153905;27;19930;-61
2022/05/10 07:22:38;;;;;;;;;;;19.30;99.90;;;;;;5153747;27;19926;-61
2022/05/10 07:25:04;;;;;;;;;;;19.40;99.90;;;;;;5155050;27;19939;-61
2022/05/10 07:27:30;;;;;;;;;;;19.40;99.90;;;;;;5136168;27;19923;-61
2022/05/10 07:29:55;;;;;;;;;;;19.40;99.90;;;;;;5136441;27;19924;-61
2022/05/10 07:32:22;;;;;;;;;;;19.50;99.90;;;;;;5126276;27;19966;-61
2022/05/10 07:34:48;;;;;;;;;;;19.60;99.90;;;;;;5144288;27;19927;-61
2022/05/10 07:37:13;;;;;;;;;;;19.70;99.90;;;;;;5150478;27;19935;-61
2022/05/10 07:39:40;;;;;;;;;;;19.90;99.90;;;;;;5154296;27;19929;-61
2022/05/10 07:42:06;;;;;;;;;;;20.00;99.90;;;;;;5135707;27;20006;-61
2022/05/10 07:44:32;;;;;;;;;;;20.20;99.90;;;;;;5153268;27;20023;-61
2022/05/10 07:46:57;;;;;;;;;;;20.30;99.90;;;;;;5150945;27;19923;-61
2022/05/10 07:49:23;;;;;;;;;;;20.40;99.50;;;;;;5153868;27;19931;-61
2022/05/10 07:51:49;;;;;;;;;;;20.40;99.20;;;;;;5134456;27;20305;-61
2022/05/10 07:54:15;;;;;;;;;;;20.50;98.00;;;;;;5153772;27;20015;-61
2022/05/10 07:56:41;;;;;;;;;;;20.60;98.20;;;;;;5133167;27;19931;-61
2022/05/10 07:59:07;;;;;;;;;;;20.50;98.20;;;;;;5152888;27;19927;-61
2022/05/10 08:01:33;;;;;;;;;;;20.50;98.60;;;;;;5134764;27;19966;-61
2022/05/10 08:03:59;;;;;;;;;;;20.60;98.30;;;;;;5152965;27;20070;-61
2022/05/10 08:06:25;;;;;;;;;;;20.70;98.40;;;;;;5133678;27;19983;-61
2022/05/10 08:08:51;;;;;;;;;;;21.00;97.70;;;;;;5154511;27;19934;-61
2022/05/10 08:11:16;;;;;;;;;;;21.20;97.50;;;;;;5153820;27;20010;-61
2022/05/10 08:13:42;;;;;;;;;;;21.50;96.40;;;;;;5134957;27;20316;-61
2022/05/10 08:16:09;;;;;;;;;;;21.50;94.50;;;;;;5153808;27;20312;-61
2022/05/10 08:18:36;;;;;;;;;;;21.50;92.00;;;;;;5150017;27;19967;-61
2022/05/10 08:21:03;;;;;;;;;;;21.50;92.20;;;;;;5151278;27;20009;-61
2022/05/10 08:23:30;;;;;;;;;;;21.40;94.40;;;;;;5149684;27;19923;-61
2022/05/10 08:25:56;;;;;;;;;;;21.40;94.00;;;;;;5153224;27;19923;-61
2022/05/10 08:28:23;;;;;;;;;;;21.50;93.80;;;;;;5134757;27;19968;-61
2022/05/10 08:30:49;;;;;;;;;;;21.70;93.80;;;;;;5153292;27;19970;-61
2022/05/10 08:33:23;;;;;;;;;;;21.90;91.30;;;;;;5156543;27;19923;-61
2022/05/10 08:35:50;;;;;;;;;;;;;;;;;;5119811;27;19934;-61
2022/05/10 08:38:16;;;;;;;;;;;;;;;;;;5157862;27;19919;-61
2022/05/10 08:40:42;;;;;;;;;;;;;;;;;;5151480;27;19923;-61
2022/05/10 08:43:08;;;;;;;;;;;;;;;;;;5138535;27;20349;-61
2022/05/10 08:45:34;;;;;;;;;;;;;;;;;;5157293;27;19923;-61
2022/05/10 08:48:00;;;;;;;;;;;;;;;;;;5138158;27;20010;-61
2022/05/10 08:50:26;;;;;;;;;;;;;;;;;;5137423;27;19923;-61
2022/05/10 08:52:52;;;;;;;;;;;;;;;;;;5156998;27;19923;-61
2022/05/10 08:55:21;;;;;;;;;;;;;;;;;;5138126;27;19930;-61
2022/05/10 08:57:47;;;;;;;;;;;;;;;;;;5134717;27;20385;-61
2022/05/10 09:00:13;;;;;;;;;;;;;;;;;;5117372;27;20393;-61
2022/05/10 09:02:40;;;;;;;;;;;;;;;;;;5118377;27;19930;-61
2022/05/10 09:05:06;;;;;;;;;;;;;;;;;;5117395;27;19927;-61
2022/05/10 09:07:33;;;;;;;;;;;;;;;;;;5140224;27;19945;-61
2022/05/10 09:09:59;;;;;;;;;;;;;;;;;;5117920;27;19930;-61
2022/05/10 09:12:24;;;;;;;;;;;;;;;;;;5135980;27;19923;-61
2022/05/10 09:14:51;;;;;;;;;;;;;;;;;;5135560;27;19927;-61
2022/05/10 09:17:17;;;;;;;;;;;;;;;;;;5153804;27;19975;-61
2022/05/10 09:19:43;;;;;;;;;;;;;;;;;;5156734;27;19923;-61
2022/05/10 09:22:11;;;;;;;;;;;;;;;;;;5156262;27;19923;-61
2022/05/10 09:24:37;;;;;;;;;;;;;;;;;;5150733;27;20064;-61
2022/05/10 09:27:03;;;;;;;;;;;;;;;;;;5136180;27;19992;-62
2022/05/10 09:29:32;;;;;;;;;;;;;;;;;;5155333;27;19923;-62
2022/05/10 09:34:49;;;;;;;;;;;;;;;;;;5146112;27;19946;-62
2022/05/10 09:37:15;;;;;;;;;;;;;;;;;;5126148;27;19931;-61
2022/05/10 09:39:41;;;;;;;;;;;;;;;;;;5135686;27;20393;-61
2022/05/10 09:42:07;;;;;;;;;;;;;;;;;;5149928;27;19933;-61
2022/05/10 09:44:33;;;;;;;;;;;;;;;;;;5121170;27;19926;-61
2022/05/10 09:46:59;;;;;;;;;;;;;;;;;;5126297;27;20328;-61
2022/05/10 09:49:25;;;;;;;;;;;;;;;;;;5134639;27;19928;-61
2022/05/10 09:51:51;;;;;;;;;;;;;;;;;;5147667;27;19926;-61
2022/05/10 09:54:17;;;;;;;;;;;;;;;;;;5137247;27;19927;-61
2022/05/10 09:56:44;;;;;;;;;;;;;;;;;;5134333;27;19926;-61
2022/05/10 09:59:10;;;;;;;;;;;;;;;;;;5135511;27;19927;-62
2022/05/10 10:01:36;;;;;;;;;;;;;;;;;;5137295;27;19976;-61
2022/05/10 10:04:03;;;;;;;;;;;;;;;;;;5126202;27;20005;-61
2022/05/10 10:06:29;;;;;;;;;;;;;;;;;;5156226;27;20011;-61
2022/05/10 10:08:55;;;;;;;;;;;;;;;;;;5155880;27;19919;-61
2022/05/10 10:11:21;;;;;;;;;;;;;;;;;;5155012;27;20376;-61
2022/05/10 10:13:47;;;;;;;;;;;;;;;;;;5155719;27;20026;-61
2022/05/10 10:16:14;;;;;;;;;;;;;;;;;;5156084;27;19935;-61
2022/05/10 10:18:40;;;;;;;;;;;;;;;;;;5154806;27;19923;-61
2022/05/10 10:21:07;;;;;;;;;;;;;;;;;;5126057;27;20395;-61
2022/05/10 10:23:33;;;;;;;;;;;;;;;;;;5135380;27;19984;-61
2022/05/10 10:26:00;;;;;;;;;;;;;;;;;;5134312;27;20031;-61
2022/05/10 10:28:27;;;;;;;;;;;;;;;;;;5146925;27;20398;-61
2022/05/10 10:30:53;;;;;;;;;;;;;;;;;;5156029;27;20022;-61
2022/05/10 10:33:20;;;;;;;;;;;;;;;;;;5154994;27;19923;-61
2022/05/10 10:35:46;;;;;;;;;;;;;;;;;;5154965;27;19924;-61
2022/05/10 10:38:12;;;;;;;;;;;;;;;;;;5155660;27;19945;-61
2022/05/10 10:40:39;;;;;;;;;;;;;;;;;;5147924;27;19931;-61
2022/05/10 10:43:05;;;;;;;;;;;;;;;;;;5145885;27;20542;-61
2022/05/10 10:45:31;;;;;;;;;;;;;;;;;;5135942;27;19929;-61
2022/05/10 10:47:57;;;;;;;;;;;;;;;;;;5156012;27;19923;-61
2022/05/10 10:50:23;;;;;;;;;;;;;;;;;;5155316;27;20433;-61
2022/05/10 10:52:49;;;;;;;;;;;;;;;;;;5154447;27;19991;-62
2022/05/10 10:55:18;;;;;;;;;;;;;;;;;;5154387;27;19931;-62
2022/05/10 10:57:44;;;;;;;;;;;;;;;;;;5136681;27;19967;-62
2022/05/10 11:00:10;;;;;;;;;;;;;;;;;;5135735;27;19919;-62
2022/05/10 11:02:36;;;;;;;;;;;;;;;;;;5154957;27;19923;-62
2022/05/10 11:05:02;;;;;;;;;;;;;;;;;;5155140;27;20317;-62
2022/05/10 11:07:28;;;;;;;;;;;;;;;;;;5147766;27;20301;-62
2022/05/10 11:09:54;;;;;;;;;;;;;;;;;;5143363;27;19930;-61
2022/05/10 11:12:20;;;;;;;;;;;;;;;;;;5153242;27;20269;-62
2022/05/10 11:14:48;;;;;;;;;;;;;;;;;;5153007;27;21194;-62
2022/05/10 11:17:14;;;;;;;;;;;;;;;;;;5140156;27;20386;-62
2022/05/10 11:19:40;;;;;;;;;;;;;;;;;;5153889;27;19925;-62
2022/05/10 11:22:06;;;;;;;;;;;;;;;;;;5154362;27;20005;-62
2022/05/10 11:24:32;;;;;;;;;;;;;;;;;;5153893;27;20424;-62
2022/05/10 11:26:58;;;;;;;;;;;;;;;;;;5153609;27;20297;-62
2022/05/10 11:29:24;;;;;;;;;;;;;;;;;;5132705;27;19924;-62
2022/05/10 11:31:51;;;;;;;;;;;;;;;;;;5154424;27;19926;-62
2022/05/10 11:34:17;;;;;;;;;;;;;;;;;;5154676;27;19975;-62
2022/05/10 11:36:44;;;;;;;;;;;;;;;;;;5152008;27;20018;-62
2022/05/10 11:39:10;;;;;;;;;;;;;;;;;;5134249;27;19927;-62
2022/05/10 11:41:36;;;;;;;;;;;;;;;;;;5153927;27;19927;-62
2022/05/10 11:44:02;;;;;;;;;;;;;;;;;;5135330;27;20005;-62
2022/05/10 11:46:29;;;;;;;;;;;;;;;;;;5129726;27;20421;-62
2022/05/10 11:48:55;;;;;;;;;;;;;;;;;;5153448;27;20001;-62
2022/05/10 11:51:42;;;;;;;;;;;;;;;;;;5131576;27;19927;-62
2022/05/10 11:54:09;;;;;;;;;;;;;;;;;;5153167;27;19927;-62
2022/05/10 11:56:35;;;;;;;;;;;;;;;;;;5150029;27;19923;-62
2022/05/10 11:59:01;;;;;;;;;;;;;;;;;;5154432;27;19923;-62
2022/05/10 12:01:27;;;;;;;;;;;;;;;;;;5154499;27;20387;-61
2022/05/10 12:03:53;;;;;;;;;;;;;;;;;;5151862;27;19927;-62
2022/05/10 12:06:19;;;;;;;;;;;;;;;;;;5156732;27;20365;-62
2022/05/10 12:08:45;;;;;;;;;;;;;;;;;;5158295;27;20013;-61
2022/05/10 12:11:11;;;;;;;;;;;;;;;;;;5157295;27;20493;-61
2022/05/10 12:21:52;;;;;;;;;;;;;;;;;;5156748;27;20056;-61
2022/05/10 12:24:26;;;;;;;;;;;23.80;83.20;;;;;;5157519;27;20329;-62
2022/05/10 12:26:53;;;;;;;;;;;23.90;81.20;;;;;;5157817;27;20047;-61
2022/05/10 12:29:30;;;;;;;;;;;23.80;80.70;;;;;;5151349;27;20375;-62
2022/05/10 12:32:02;;;;;;;;;;;23.70;76.80;;;;;;5136211;27;19972;-62
2022/05/10 12:34:37;;;;;;;;;;;23.50;76.90;;;;;;5155322;27;20278;-62
2022/05/10 12:37:22;;;;;;;;;;;23.60;78.40;;;;;;5157813;27;20074;-62
2022/05/10 12:39:55;;;;;;;;;;;23.60;80.20;;;;;;5152393;27;19976;-62
2022/05/10 12:42:27;;;;;;;;;;;23.70;75.80;;;;;;5118573;27;19923;-61
2022/05/10 12:45:02;;;;;;;;;;;23.70;75.10;;;;;;5144173;27;20305;-62
2022/05/10 12:47:30;;;;;;;;;;;23.60;75.70;;;;;;5118069;27;20006;-62
2022/05/10 12:49:59;;;;;;;;;;;23.40;75.80;;;;;;5157415;27;19975;-62
2022/05/10 12:52:38;;;;;;;;;;;23.50;77.00;;;;;;5156907;27;20038;-62
2022/05/10 12:55:06;;;;;;;;;;;23.50;75.80;;;;;;5157084;27;19923;-62
2022/05/10 12:57:49;;;;;;;;;;;23.70;76.40;;;;;;5145969;27;19919;-62
2022/05/10 13:00:20;;;;;;;;;;;23.70;74.30;;;;;;5136039;27;19931;-61
2022/05/10 13:03:05;;;;;;;;;;;23.50;74.40;;;;;;5136519;27;19919;-62
2022/05/10 13:05:40;;;;;;;;;;;23.50;75.60;;;;;;5139383;27;19934;-62
2022/05/10 13:08:26;;;;;;;;;;;23.30;79.60;;;;;;5156514;27;20379;-62
2022/05/10 13:10:52;;;;;;;;;;;23.20;78.20;;;;;;5156542;27;20736;-62
2022/05/10 13:13:20;;;;;;;;;;;23.10;79.20;;;;;;5156391;27;20026;-62
2022/05/10 13:15:46;;;;;;;;;;;23.10;80.60;;;;;;5141523;27;20262;-62
2022/05/10 13:18:16;;;;;;;;;;;23.10;82.00;;;;;;5142851;27;19970;-62
2022/05/10 13:20:47;;;;;;;;;;;23.00;81.60;;;;;;5117071;27;19924;-61
2022/05/10 13:23:13;;;;;;;;;;;22.90;82.10;;;;;;5138589;27;20422;-61
2022/05/10 13:25:39;;;;;;;;;;;22.80;83.40;;;;;;5136071;27;19927;-62
2022/05/10 13:28:07;;;;;;;;;;;22.70;83.00;;;;;;5144793;27;19923;-61
2022/05/10 13:30:33;;;;;;;;;;;22.70;83.70;;;;;;5156660;27;20021;-62
2022/05/10 13:32:58;;;;;;;;;;;22.60;84.10;;;;;;5155214;27;20014;-62
2022/05/10 13:35:25;;;;;;;;;;;22.60;86.10;;;;;;5140455;27;20408;-61
2022/05/10 13:37:52;;;;;;;;;;;22.50;83.10;;;;;;5117465;27;19930;-62
2022/05/10 13:40:27;;;;;;;;;;;22.50;85.10;;;;;;5120712;27;20346;-62
2022/05/10 13:42:53;;;;;;;;;;;22.50;83.10;;;;;;5154765;27;19970;-62
2022/05/10 13:45:21;;;;;;;;;;;22.30;81.50;;;;;;5156505;27;19923;-62
2022/05/10 13:47:48;;;;;;;;;;;22.30;82.90;;;;;;5155011;27;19970;-62
2022/05/10 13:50:20;;;;;;;;;;;22.20;82.60;;;;;;5154568;27;19991;-62
2022/05/10 13:52:48;;;;;;;;;;;22.20;82.80;;;;;;5156437;27;20026;-61
2022/05/10 13:55:16;;;;;;;;;;;22.20;79.20;;;;;;5151743;27;19927;-61
2022/05/10 13:57:48;;;;;;;;;;;22.20;80.00;;;;;;5155678;27;19987;-62
2022/05/10 14:00:16;;;;;;;;;;;22.20;80.60;;;;;;5136284;27;20448;-62
2022/05/10 14:02:42;;;;;;;;;;;22.10;78.40;;;;;;5155034;27;19970;-61
2022/05/10 14:05:14;;;;;;;;;;;22.10;78.50;;;;;;5137494;27;20469;-62
2022/05/10 14:07:40;;;;;;;;;;;22.20;80.00;;;;;;5132328;27;19931;-62
2022/05/10 14:10:09;;;;;;;;;;;22.20;80.00;;;;;;5116037;27;19920;-61
2022/05/10 14:12:40;;;;;;;;;;;22.20;79.70;;;;;;5146030;27;19923;-61
2022/05/10 14:15:12;;;;;;;;;;;22.20;77.30;;;;;;5151901;27;20368;-62
2022/05/10 14:17:47;;;;;;;;;;;22.00;78.20;;;;;;5109057;27;19931;-62
2022/05/10 14:20:20;;;;;;;;;;;21.90;76.90;;;;;;5139150;27;19927;-62
2022/05/10 14:22:47;;;;;;;;;;;21.70;72.90;;;;;;5155895;27;20412;-61
2022/05/10 14:25:14;;;;;;;;;;;21.50;72.40;;;;;;5153305;27;19992;-62
2022/05/10 14:27:58;;;;;;;;;;;21.30;73.10;;;;;;5155708;27;19979;-61
2022/05/10 14:30:26;;;;;;;;;;;21.10;72.50;;;;;;5154164;27;19923;-61
2022/05/10 14:32:52;;;;;;;;;;;21.00;71.80;;;;;;5154854;27;19927;-62
2022/05/10 14:35:30;;;;;;;;;;;20.90;70.00;;;;;;5154451;27;19968;-61
2022/05/10 14:37:57;;;;;;;;;;;20.90;69.70;;;;;;5118799;27;19981;-61
2022/05/10 14:40:27;;;;;;;;;;;20.80;69.70;;;;;;5155116;27;19927;-61
2022/05/10 14:42:54;;;;;;;;;;;20.70;69.90;;;;;;5155022;27;19923;-61
2022/05/10 14:45:36;;;;;;;;;;;20.70;69.20;;;;;;5153978;27;20288;-61
2022/05/10 14:48:19;;;;;;;;;;;20.60;66.90;;;;;;5134448;27;20454;-61
2022/05/10 14:50:47;;;;;;;;;;;20.50;64.60;;;;;;5134714;27;19982;-61
2022/05/10 14:53:14;;;;;;;;;;;20.30;62.40;;;;;;5130894;27;19923;-61
2022/05/10 14:55:44;;;;;;;;;;;20.20;63.20;;;;;;5136662;27;19923;-61
2022/05/10 14:58:12;;;;;;;;;;;20.00;62.40;;;;;;5155615;27;19973;-61
2022/05/10 15:00:40;;;;;;;;;;;19.90;64.30;;;;;;5150192;27;19938;-61
2022/05/10 15:03:20;;;;;;;;;;;19.70;65.70;;;;;;5134411;27;20007;-61